sensor_id;sensor_type;location;lat;lon;timestamp;P1;durP1;ratioP1;P2;durP2;ratioP2
37787;SDS011;23627;53.302;-6.362;2023-07-29T00:00:43;3.50;;;1.00;;
37787;SDS011;23627;53.302;-6.362;2023-07-29T00:03:09;4.90;;;1.00;;
37787;SDS011;23627;53.302;-6.362;2023-07-29T00:05:36;4.25;;;0.80;;
37787;SDS011;23627;53.302;-6.362;2023-07-29T00:08:02;3.25;;;1.00;;
37787;SDS011;23627;53.302;-6.362;2023-07-29T00:10:28;2.30;;;0.90;;
37787;SDS011;23627;53.302;-6.362;2023-07-29T00:12:56;3.28;;;0.90;;
37787;SDS011;23627;53.302;-6.362;2023-07-29T00:15:22;2.38;;;0.88;;
37787;SDS011;23627;53.302;-6.362;2023-07-29T00:17:48;1.88;;;0.80;;
37787;SDS011;23627;53.302;-6.362;2023-07-29T00:20:14;4.18;;;1.17;;
37787;SDS011;23627;53.302;-6.362;2023-07-29T00:22:40;4.60;;;0.95;;
37787;SDS011;23627;53.302;-6.362;2023-07-29T00:25:06;3.50;;;1.00;;
37787;SDS011;23627;53.302;-6.362;2023-07-29T00:27:32;4.38;;;1.00;;
37787;SDS011;23627;53.302;-6.362;2023-07-29T00:29:57;3.30;;;0.90;;
37787;SDS011;23627;53.302;-6.362;2023-07-29T00:32:23;4.28;;;0.88;;
37787;SDS011;23627;53.302;-6.362;2023-07-29T00:34:49;3.15;;;0.88;;
37787;SDS011;23627;53.302;-6.362;2023-07-29T00:37:14;3.78;;;0.82;;
37787;SDS011;23627;53.302;-6.362;2023-07-29T00:39:40;3.72;;;1.23;;
37787;SDS011;23627;53.302;-6.362;2023-07-29T00:42:06;3.72;;;0.98;;
37787;SDS011;23627;53.302;-6.362;2023-07-29T00:44:32;1.98;;;0.70;;
37787;SDS011;23627;53.302;-6.362;2023-07-29T00:46:57;3.20;;;0.95;;
37787;SDS011;23627;53.302;-6.362;2023-07-29T00:49:25;5.63;;;0.90;;
37787;SDS011;23627;53.302;-6.362;2023-07-29T00:51:51;9.98;;;1.20;;
37787;SDS011;23627;53.302;-6.362;2023-07-29T00:54:17;3.33;;;0.80;;
37787;SDS011;23627;53.302;-6.362;2023-07-29T00:56:43;4.05;;;1.15;;
37787;SDS011;23627;53.302;-6.362;2023-07-29T00:59:09;4.25;;;0.90;;
37787;SDS011;23627;53.302;-6.362;2023-07-29T01:01:34;4.32;;;1.00;;
37787;SDS011;23627;53.302;-6.362;2023-07-29T01:04:00;3.95;;;0.80;;
37787;SDS011;23627;53.302;-6.362;2023-07-29T01:09:06;4.13;;;1.02;;
37787;SDS011;23627;53.302;-6.362;2023-07-29T01:11:58;3.72;;;0.90;;
37787;SDS011;23627;53.302;-6.362;2023-07-29T01:14:46;5.05;;;1.10;;
37787;SDS011;23627;53.302;-6.362;2023-07-29T01:17:20;5.00;;;1.00;;
37787;SDS011;23627;53.302;-6.362;2023-07-29T01:20:01;4.93;;;1.20;;
37787;SDS011;23627;53.302;-6.362;2023-07-29T01:22:33;4.68;;;1.10;;
37787;SDS011;23627;53.302;-6.362;2023-07-29T01:24:59;4.75;;;1.10;;
37787;SDS011;23627;53.302;-6.362;2023-07-29T01:27:26;5.60;;;1.08;;
37787;SDS011;23627;53.302;-6.362;2023-07-29T01:29:52;6.00;;;1.20;;
37787;SDS011;23627;53.302;-6.362;2023-07-29T01:32:25;6.28;;;1.27;;
37787;SDS011;23627;53.302;-6.362;2023-07-29T01:35:15;6.55;;;1.08;;
37787;SDS011;23627;53.302;-6.362;2023-07-29T01:37:55;7.03;;;1.40;;
37787;SDS011;23627;53.302;-6.362;2023-07-29T01:40:26;4.25;;;0.90;;
37787;SDS011;23627;53.302;-6.362;2023-07-29T01:42:53;8.25;;;1.45;;
37787;SDS011;23627;53.302;-6.362;2023-07-29T01:45:22;6.78;;;1.48;;
37787;SDS011;23627;53.302;-6.362;2023-07-29T01:47:50;4.50;;;0.90;;
37787;SDS011;23627;53.302;-6.362;2023-07-29T01:50:16;8.48;;;1.40;;
37787;SDS011;23627;53.302;-6.362;2023-07-29T01:52:42;4.28;;;1.13;;
37787;SDS011;23627;53.302;-6.362;2023-07-29T01:55:08;6.00;;;1.05;;
37787;SDS011;23627;53.302;-6.362;2023-07-29T01:57:34;5.45;;;1.42;;
37787;SDS011;23627;53.302;-6.362;2023-07-29T01:59:59;6.80;;;1.33;;
37787;SDS011;23627;53.302;-6.362;2023-07-29T02:02:25;8.45;;;1.48;;
37787;SDS011;23627;53.302;-6.362;2023-07-29T02:04:51;6.40;;;1.25;;
37787;SDS011;23627;53.302;-6.362;2023-07-29T02:07:20;6.97;;;1.38;;
37787;SDS011;23627;53.302;-6.362;2023-07-29T02:09:46;5.55;;;1.23;;
37787;SDS011;23627;53.302;-6.362;2023-07-29T02:12:12;9.90;;;1.50;;
37787;SDS011;23627;53.302;-6.362;2023-07-29T02:14:38;4.53;;;1.20;;
37787;SDS011;23627;53.302;-6.362;2023-07-29T02:17:04;7.53;;;1.38;;
37787;SDS011;23627;53.302;-6.362;2023-07-29T02:19:29;5.78;;;1.80;;
37787;SDS011;23627;53.302;-6.362;2023-07-29T02:21:55;5.03;;;1.20;;
37787;SDS011;23627;53.302;-6.362;2023-07-29T02:24:21;8.07;;;1.55;;
37787;SDS011;23627;53.302;-6.362;2023-07-29T02:26:46;5.80;;;1.30;;
37787;SDS011;23627;53.302;-6.362;2023-07-29T02:29:13;5.32;;;1.10;;
37787;SDS011;23627;53.302;-6.362;2023-07-29T02:31:38;7.13;;;1.40;;
37787;SDS011;23627;53.302;-6.362;2023-07-29T02:34:04;4.63;;;1.40;;
37787;SDS011;23627;53.302;-6.362;2023-07-29T02:36:30;3.53;;;1.30;;
37787;SDS011;23627;53.302;-6.362;2023-07-29T02:38:55;6.43;;;1.30;;
37787;SDS011;23627;53.302;-6.362;2023-07-29T02:41:21;6.93;;;1.30;;
37787;SDS011;23627;53.302;-6.362;2023-07-29T02:43:50;5.68;;;1.48;;
37787;SDS011;23627;53.302;-6.362;2023-07-29T02:46:16;8.52;;;1.30;;
37787;SDS011;23627;53.302;-6.362;2023-07-29T02:48:44;5.20;;;1.23;;
37787;SDS011;23627;53.302;-6.362;2023-07-29T02:51:09;3.50;;;1.00;;
37787;SDS011;23627;53.302;-6.362;2023-07-29T02:53:35;6.80;;;1.40;;
37787;SDS011;23627;53.302;-6.362;2023-07-29T02:56:04;5.43;;;1.08;;
37787;SDS011;23627;53.302;-6.362;2023-07-29T02:58:31;7.88;;;1.50;;
37787;SDS011;23627;53.302;-6.362;2023-07-29T03:01:00;6.03;;;1.35;;
37787;SDS011;23627;53.302;-6.362;2023-07-29T03:03:27;5.60;;;1.20;;
37787;SDS011;23627;53.302;-6.362;2023-07-29T03:05:57;7.60;;;1.25;;
37787;SDS011;23627;53.302;-6.362;2023-07-29T03:08:33;4.72;;;1.30;;
37787;SDS011;23627;53.302;-6.362;2023-07-29T03:11:04;4.45;;;1.10;;
37787;SDS011;23627;53.302;-6.362;2023-07-29T03:13:32;5.15;;;1.10;;
37787;SDS011;23627;53.302;-6.362;2023-07-29T03:16:04;6.50;;;1.30;;
37787;SDS011;23627;53.302;-6.362;2023-07-29T03:18:31;5.50;;;1.40;;
37787;SDS011;23627;53.302;-6.362;2023-07-29T03:20:57;8.40;;;1.23;;
37787;SDS011;23627;53.302;-6.362;2023-07-29T03:23:22;5.28;;;1.17;;
37787;SDS011;23627;53.302;-6.362;2023-07-29T03:25:49;7.95;;;1.40;;
37787;SDS011;23627;53.302;-6.362;2023-07-29T03:28:16;9.45;;;1.73;;
37787;SDS011;23627;53.302;-6.362;2023-07-29T03:30:42;8.88;;;1.60;;
37787;SDS011;23627;53.302;-6.362;2023-07-29T03:33:08;6.20;;;1.42;;
37787;SDS011;23627;53.302;-6.362;2023-07-29T03:35:33;6.95;;;1.33;;
37787;SDS011;23627;53.302;-6.362;2023-07-29T03:37:59;7.30;;;1.38;;
37787;SDS011;23627;53.302;-6.362;2023-07-29T03:40:25;5.05;;;1.30;;
37787;SDS011;23627;53.302;-6.362;2023-07-29T03:42:50;5.47;;;1.25;;
37787;SDS011;23627;53.302;-6.362;2023-07-29T03:45:16;7.30;;;2.00;;
37787;SDS011;23627;53.302;-6.362;2023-07-29T03:47:42;5.68;;;1.45;;
37787;SDS011;23627;53.302;-6.362;2023-07-29T03:50:07;6.18;;;1.50;;
37787;SDS011;23627;53.302;-6.362;2023-07-29T03:52:34;6.07;;;1.73;;
37787;SDS011;23627;53.302;-6.362;2023-07-29T03:54:59;6.93;;;1.50;;
37787;SDS011;23627;53.302;-6.362;2023-07-29T03:57:25;6.55;;;1.40;;
37787;SDS011;23627;53.302;-6.362;2023-07-29T03:59:51;5.03;;;1.20;;
37787;SDS011;23627;53.302;-6.362;2023-07-29T04:02:17;6.32;;;1.80;;
37787;SDS011;23627;53.302;-6.362;2023-07-29T04:04:42;4.30;;;1.25;;
37787;SDS011;23627;53.302;-6.362;2023-07-29T04:07:12;6.30;;;1.45;;
37787;SDS011;23627;53.302;-6.362;2023-07-29T04:09:38;8.13;;;1.33;;
37787;SDS011;23627;53.302;-6.362;2023-07-29T04:12:04;5.07;;;1.10;;
37787;SDS011;23627;53.302;-6.362;2023-07-29T04:14:30;7.80;;;1.20;;
37787;SDS011;23627;53.302;-6.362;2023-07-29T04:16:55;5.35;;;1.10;;
37787;SDS011;23627;53.302;-6.362;2023-07-29T04:19:21;7.45;;;1.60;;
37787;SDS011;23627;53.302;-6.362;2023-07-29T04:21:47;6.68;;;1.63;;
37787;SDS011;23627;53.302;-6.362;2023-07-29T04:24:12;6.10;;;1.25;;
37787;SDS011;23627;53.302;-6.362;2023-07-29T04:26:38;8.30;;;1.80;;
37787;SDS011;23627;53.302;-6.362;2023-07-29T04:29:04;6.10;;;1.33;;
37787;SDS011;23627;53.302;-6.362;2023-07-29T04:31:30;10.55;;;1.65;;
37787;SDS011;23627;53.302;-6.362;2023-07-29T04:33:56;6.75;;;1.40;;
37787;SDS011;23627;53.302;-6.362;2023-07-29T04:36:21;5.93;;;1.30;;
37787;SDS011;23627;53.302;-6.362;2023-07-29T04:38:47;6.40;;;1.50;;
37787;SDS011;23627;53.302;-6.362;2023-07-29T04:41:13;7.30;;;1.63;;
37787;SDS011;23627;53.302;-6.362;2023-07-29T04:43:38;6.57;;;1.30;;
37787;SDS011;23627;53.302;-6.362;2023-07-29T04:46:07;5.30;;;1.15;;
37787;SDS011;23627;53.302;-6.362;2023-07-29T04:48:35;5.60;;;1.42;;
37787;SDS011;23627;53.302;-6.362;2023-07-29T04:51:01;4.88;;;1.75;;
37787;SDS011;23627;53.302;-6.362;2023-07-29T04:53:27;6.60;;;1.20;;
37787;SDS011;23627;53.302;-6.362;2023-07-29T04:55:52;9.15;;;1.60;;
37787;SDS011;23627;53.302;-6.362;2023-07-29T04:58:18;4.07;;;1.10;;
37787;SDS011;23627;53.302;-6.362;2023-07-29T05:00:46;7.90;;;1.38;;
37787;SDS011;23627;53.302;-6.362;2023-07-29T05:03:12;9.82;;;1.58;;
37787;SDS011;23627;53.302;-6.362;2023-07-29T05:05:37;4.78;;;1.50;;
37787;SDS011;23627;53.302;-6.362;2023-07-29T05:08:03;7.78;;;1.77;;
37787;SDS011;23627;53.302;-6.362;2023-07-29T05:10:29;4.40;;;1.30;;
37787;SDS011;23627;53.302;-6.362;2023-07-29T05:12:55;7.20;;;1.40;;
37787;SDS011;23627;53.302;-6.362;2023-07-29T05:15:20;6.13;;;1.50;;
37787;SDS011;23627;53.302;-6.362;2023-07-29T05:17:46;5.85;;;1.20;;
37787;SDS011;23627;53.302;-6.362;2023-07-29T05:20:12;6.15;;;1.50;;
37787;SDS011;23627;53.302;-6.362;2023-07-29T05:22:37;5.90;;;1.27;;
37787;SDS011;23627;53.302;-6.362;2023-07-29T05:25:03;6.13;;;1.23;;
37787;SDS011;23627;53.302;-6.362;2023-07-29T05:27:31;6.22;;;1.50;;
37787;SDS011;23627;53.302;-6.362;2023-07-29T05:29:56;8.75;;;1.83;;
37787;SDS011;23627;53.302;-6.362;2023-07-29T05:32:22;11.20;;;1.73;;
37787;SDS011;23627;53.302;-6.362;2023-07-29T05:34:48;5.95;;;1.45;;
37787;SDS011;23627;53.302;-6.362;2023-07-29T05:37:13;6.50;;;1.27;;
37787;SDS011;23627;53.302;-6.362;2023-07-29T05:39:39;7.55;;;1.73;;
37787;SDS011;23627;53.302;-6.362;2023-07-29T05:42:05;7.45;;;1.40;;
37787;SDS011;23627;53.302;-6.362;2023-07-29T05:44:31;5.20;;;1.30;;
37787;SDS011;23627;53.302;-6.362;2023-07-29T05:46:57;10.70;;;1.55;;
37787;SDS011;23627;53.302;-6.362;2023-07-29T05:49:23;9.45;;;1.30;;
37787;SDS011;23627;53.302;-6.362;2023-07-29T05:51:48;9.40;;;1.40;;
37787;SDS011;23627;53.302;-6.362;2023-07-29T05:54:17;6.93;;;1.27;;
37787;SDS011;23627;53.302;-6.362;2023-07-29T05:56:43;6.07;;;1.35;;
37787;SDS011;23627;53.302;-6.362;2023-07-29T05:59:08;7.05;;;1.40;;
37787;SDS011;23627;53.302;-6.362;2023-07-29T06:01:34;9.18;;;1.40;;
37787;SDS011;23627;53.302;-6.362;2023-07-29T06:04:00;7.28;;;1.20;;
37787;SDS011;23627;53.302;-6.362;2023-07-29T06:06:26;8.95;;;1.80;;
37787;SDS011;23627;53.302;-6.362;2023-07-29T06:08:52;6.90;;;1.35;;
37787;SDS011;23627;53.302;-6.362;2023-07-29T06:11:18;9.32;;;1.40;;
37787;SDS011;23627;53.302;-6.362;2023-07-29T06:13:43;8.52;;;1.70;;
37787;SDS011;23627;53.302;-6.362;2023-07-29T06:16:09;7.82;;;1.75;;
37787;SDS011;23627;53.302;-6.362;2023-07-29T06:18:35;7.47;;;1.42;;
37787;SDS011;23627;53.302;-6.362;2023-07-29T06:21:00;8.55;;;1.45;;
37787;SDS011;23627;53.302;-6.362;2023-07-29T06:23:26;7.15;;;1.20;;
37787;SDS011;23627;53.302;-6.362;2023-07-29T06:25:52;8.10;;;1.40;;
37787;SDS011;23627;53.302;-6.362;2023-07-29T06:28:18;4.13;;;1.42;;
37787;SDS011;23627;53.302;-6.362;2023-07-29T06:30:43;7.38;;;1.17;;
37787;SDS011;23627;53.302;-6.362;2023-07-29T06:33:09;6.95;;;1.45;;
37787;SDS011;23627;53.302;-6.362;2023-07-29T06:35:35;7.10;;;1.33;;
37787;SDS011;23627;53.302;-6.362;2023-07-29T06:38:01;6.68;;;1.40;;
37787;SDS011;23627;53.302;-6.362;2023-07-29T06:40:26;6.10;;;1.40;;
37787;SDS011;23627;53.302;-6.362;2023-07-29T06:42:52;8.93;;;1.65;;
37787;SDS011;23627;53.302;-6.362;2023-07-29T06:45:18;8.93;;;1.38;;
37787;SDS011;23627;53.302;-6.362;2023-07-29T06:47:44;6.47;;;1.40;;
37787;SDS011;23627;53.302;-6.362;2023-07-29T06:50:10;7.63;;;1.35;;
37787;SDS011;23627;53.302;-6.362;2023-07-29T06:52:36;5.07;;;1.00;;
37787;SDS011;23627;53.302;-6.362;2023-07-29T06:55:03;5.43;;;1.40;;
37787;SDS011;23627;53.302;-6.362;2023-07-29T06:57:29;5.80;;;1.10;;
37787;SDS011;23627;53.302;-6.362;2023-07-29T06:59:55;4.18;;;1.30;;
37787;SDS011;23627;53.302;-6.362;2023-07-29T07:02:20;8.82;;;1.27;;
37787;SDS011;23627;53.302;-6.362;2023-07-29T07:04:46;5.85;;;1.20;;
37787;SDS011;23627;53.302;-6.362;2023-07-29T07:07:12;7.38;;;1.58;;
37787;SDS011;23627;53.302;-6.362;2023-07-29T07:09:37;5.30;;;1.30;;
37787;SDS011;23627;53.302;-6.362;2023-07-29T07:12:03;8.23;;;1.60;;
37787;SDS011;23627;53.302;-6.362;2023-07-29T07:14:29;6.28;;;1.88;;
37787;SDS011;23627;53.302;-6.362;2023-07-29T07:16:55;8.05;;;1.60;;
37787;SDS011;23627;53.302;-6.362;2023-07-29T07:19:21;6.25;;;1.15;;
37787;SDS011;23627;53.302;-6.362;2023-07-29T07:21:46;6.80;;;1.27;;
37787;SDS011;23627;53.302;-6.362;2023-07-29T07:24:12;6.03;;;1.40;;
37787;SDS011;23627;53.302;-6.362;2023-07-29T07:26:38;6.68;;;1.00;;
37787;SDS011;23627;53.302;-6.362;2023-07-29T07:29:03;6.00;;;1.58;;
37787;SDS011;23627;53.302;-6.362;2023-07-29T07:31:32;7.50;;;1.77;;
37787;SDS011;23627;53.302;-6.362;2023-07-29T07:33:58;8.27;;;1.40;;
37787;SDS011;23627;53.302;-6.362;2023-07-29T07:36:24;5.13;;;1.10;;
37787;SDS011;23627;53.302;-6.362;2023-07-29T07:38:50;9.02;;;1.35;;
37787;SDS011;23627;53.302;-6.362;2023-07-29T07:41:15;7.32;;;1.73;;
37787;SDS011;23627;53.302;-6.362;2023-07-29T07:43:41;5.65;;;1.20;;
37787;SDS011;23627;53.302;-6.362;2023-07-29T07:46:07;6.13;;;1.45;;
37787;SDS011;23627;53.302;-6.362;2023-07-29T07:48:32;7.75;;;1.35;;
37787;SDS011;23627;53.302;-6.362;2023-07-29T07:50:58;7.05;;;1.40;;
37787;SDS011;23627;53.302;-6.362;2023-07-29T07:53:24;5.13;;;1.38;;
37787;SDS011;23627;53.302;-6.362;2023-07-29T07:55:51;6.03;;;1.25;;
37787;SDS011;23627;53.302;-6.362;2023-07-29T07:58:16;10.10;;;1.83;;
37787;SDS011;23627;53.302;-6.362;2023-07-29T08:00:42;7.15;;;1.20;;
37787;SDS011;23627;53.302;-6.362;2023-07-29T08:03:08;5.63;;;1.20;;
37787;SDS011;23627;53.302;-6.362;2023-07-29T08:05:33;6.93;;;1.08;;
37787;SDS011;23627;53.302;-6.362;2023-07-29T08:07:59;4.60;;;1.30;;
37787;SDS011;23627;53.302;-6.362;2023-07-29T08:10:25;6.78;;;1.17;;
37787;SDS011;23627;53.302;-6.362;2023-07-29T08:12:51;5.63;;;1.25;;
37787;SDS011;23627;53.302;-6.362;2023-07-29T08:15:16;5.70;;;1.10;;
37787;SDS011;23627;53.302;-6.362;2023-07-29T08:17:42;3.80;;;0.90;;
37787;SDS011;23627;53.302;-6.362;2023-07-29T08:20:08;6.57;;;1.40;;
37787;SDS011;23627;53.302;-6.362;2023-07-29T08:22:34;4.60;;;1.10;;
37787;SDS011;23627;53.302;-6.362;2023-07-29T08:25:00;5.80;;;1.17;;
37787;SDS011;23627;53.302;-6.362;2023-07-29T08:27:26;6.70;;;1.45;;
37787;SDS011;23627;53.302;-6.362;2023-07-29T08:29:53;6.75;;;1.10;;
37787;SDS011;23627;53.302;-6.362;2023-07-29T08:32:19;7.65;;;1.23;;
37787;SDS011;23627;53.302;-6.362;2023-07-29T08:34:44;4.50;;;1.13;;
37787;SDS011;23627;53.302;-6.362;2023-07-29T08:37:10;5.15;;;1.20;;
37787;SDS011;23627;53.302;-6.362;2023-07-29T08:39:36;5.63;;;0.90;;
37787;SDS011;23627;53.302;-6.362;2023-07-29T08:42:05;4.28;;;1.15;;
37787;SDS011;23627;53.302;-6.362;2023-07-29T08:44:36;5.78;;;1.17;;
37787;SDS011;23627;53.302;-6.362;2023-07-29T08:47:08;8.85;;;1.15;;
37787;SDS011;23627;53.302;-6.362;2023-07-29T08:49:35;5.45;;;1.35;;
37787;SDS011;23627;53.302;-6.362;2023-07-29T08:52:02;7.45;;;1.45;;
37787;SDS011;23627;53.302;-6.362;2023-07-29T08:54:30;4.78;;;0.93;;
37787;SDS011;23627;53.302;-6.362;2023-07-29T08:56:56;4.28;;;1.02;;
37787;SDS011;23627;53.302;-6.362;2023-07-29T08:59:28;5.15;;;1.10;;
37787;SDS011;23627;53.302;-6.362;2023-07-29T09:01:55;4.18;;;1.40;;
37787;SDS011;23627;53.302;-6.362;2023-07-29T09:04:22;6.18;;;1.35;;
37787;SDS011;23627;53.302;-6.362;2023-07-29T09:06:53;5.72;;;1.20;;
37787;SDS011;23627;53.302;-6.362;2023-07-29T09:09:21;5.35;;;1.30;;
37787;SDS011;23627;53.302;-6.362;2023-07-29T09:11:47;5.40;;;1.40;;
37787;SDS011;23627;53.302;-6.362;2023-07-29T09:14:13;4.53;;;0.90;;
37787;SDS011;23627;53.302;-6.362;2023-07-29T09:16:40;6.32;;;1.20;;
37787;SDS011;23627;53.302;-6.362;2023-07-29T09:19:06;4.50;;;1.00;;
37787;SDS011;23627;53.302;-6.362;2023-07-29T09:21:32;5.28;;;1.33;;
37787;SDS011;23627;53.302;-6.362;2023-07-29T09:23:58;5.15;;;1.20;;
37787;SDS011;23627;53.302;-6.362;2023-07-29T09:26:28;3.88;;;1.17;;
37787;SDS011;23627;53.302;-6.362;2023-07-29T09:28:57;5.05;;;1.10;;
37787;SDS011;23627;53.302;-6.362;2023-07-29T09:31:27;4.70;;;1.08;;
37787;SDS011;23627;53.302;-6.362;2023-07-29T09:33:58;5.15;;;1.13;;
37787;SDS011;23627;53.302;-6.362;2023-07-29T09:36:29;7.55;;;1.30;;
37787;SDS011;23627;53.302;-6.362;2023-07-29T09:38:56;7.13;;;1.45;;
37787;SDS011;23627;53.302;-6.362;2023-07-29T09:41:23;4.18;;;1.13;;
37787;SDS011;23627;53.302;-6.362;2023-07-29T09:43:57;5.00;;;1.17;;
37787;SDS011;23627;53.302;-6.362;2023-07-29T09:46:39;5.45;;;1.10;;
37787;SDS011;23627;53.302;-6.362;2023-07-29T09:49:05;4.50;;;1.20;;
37787;SDS011;23627;53.302;-6.362;2023-07-29T09:51:37;6.60;;;1.30;;
37787;SDS011;23627;53.302;-6.362;2023-07-29T09:54:04;4.10;;;0.95;;
37787;SDS011;23627;53.302;-6.362;2023-07-29T09:56:30;5.45;;;1.00;;
37787;SDS011;23627;53.302;-6.362;2023-07-29T09:58:56;6.13;;;1.10;;
37787;SDS011;23627;53.302;-6.362;2023-07-29T10:01:24;6.30;;;1.10;;
37787;SDS011;23627;53.302;-6.362;2023-07-29T10:03:51;3.25;;;0.93;;
37787;SDS011;23627;53.302;-6.362;2023-07-29T10:06:17;5.40;;;1.48;;
37787;SDS011;23627;53.302;-6.362;2023-07-29T10:08:43;5.78;;;1.17;;
37787;SDS011;23627;53.302;-6.362;2023-07-29T10:11:10;4.45;;;1.00;;
37787;SDS011;23627;53.302;-6.362;2023-07-29T10:13:37;4.47;;;1.15;;
37787;SDS011;23627;53.302;-6.362;2023-07-29T10:16:03;5.95;;;1.10;;
37787;SDS011;23627;53.302;-6.362;2023-07-29T10:18:33;6.00;;;1.00;;
37787;SDS011;23627;53.302;-6.362;2023-07-29T10:20:59;3.60;;;1.10;;
37787;SDS011;23627;53.302;-6.362;2023-07-29T10:23:26;3.92;;;0.93;;
37787;SDS011;23627;53.302;-6.362;2023-07-29T10:25:58;3.75;;;0.93;;
37787;SDS011;23627;53.302;-6.362;2023-07-29T10:28:31;4.38;;;1.17;;
37787;SDS011;23627;53.302;-6.362;2023-07-29T10:30:58;2.25;;;0.77;;
37787;SDS011;23627;53.302;-6.362;2023-07-29T10:33:27;6.65;;;1.23;;
37787;SDS011;23627;53.302;-6.362;2023-07-29T10:35:53;3.60;;;0.80;;
37787;SDS011;23627;53.302;-6.362;2023-07-29T10:38:23;4.70;;;1.17;;
37787;SDS011;23627;53.302;-6.362;2023-07-29T10:40:54;3.63;;;0.90;;
37787;SDS011;23627;53.302;-6.362;2023-07-29T10:45:51;3.88;;;1.10;;
37787;SDS011;23627;53.302;-6.362;2023-07-29T10:53:58;4.25;;;0.95;;
37787;SDS011;23627;53.302;-6.362;2023-07-29T10:56:28;3.58;;;0.73;;
37787;SDS011;23627;53.302;-6.362;2023-07-29T10:58:59;2.67;;;0.90;;
37787;SDS011;23627;53.302;-6.362;2023-07-29T11:01:38;4.85;;;0.82;;
37787;SDS011;23627;53.302;-6.362;2023-07-29T11:17:40;3.08;;;0.57;;
37787;SDS011;23627;53.302;-6.362;2023-07-29T11:20:06;3.10;;;0.80;;
37787;SDS011;23627;53.302;-6.362;2023-07-29T11:22:33;2.85;;;0.60;;
37787;SDS011;23627;53.302;-6.362;2023-07-29T11:24:59;4.05;;;0.70;;
37787;SDS011;23627;53.302;-6.362;2023-07-29T11:27:25;3.03;;;0.68;;
37787;SDS011;23627;53.302;-6.362;2023-07-29T11:29:56;3.35;;;0.70;;
37787;SDS011;23627;53.302;-6.362;2023-07-29T11:32:23;2.60;;;0.57;;
37787;SDS011;23627;53.302;-6.362;2023-07-29T11:34:50;4.63;;;0.70;;
37787;SDS011;23627;53.302;-6.362;2023-07-29T11:37:16;3.25;;;0.57;;
37787;SDS011;23627;53.302;-6.362;2023-07-29T11:39:42;3.10;;;0.60;;
37787;SDS011;23627;53.302;-6.362;2023-07-29T11:42:12;2.45;;;0.57;;
37787;SDS011;23627;53.302;-6.362;2023-07-29T11:44:41;3.47;;;0.70;;
37787;SDS011;23627;53.302;-6.362;2023-07-29T11:47:08;1.92;;;0.60;;
37787;SDS011;23627;53.302;-6.362;2023-07-29T11:49:40;2.08;;;0.70;;
37787;SDS011;23627;53.302;-6.362;2023-07-29T11:52:07;3.35;;;0.73;;
37787;SDS011;23627;53.302;-6.362;2023-07-29T11:54:37;1.83;;;0.63;;
37787;SDS011;23627;53.302;-6.362;2023-07-29T11:57:06;4.50;;;0.77;;
37787;SDS011;23627;53.302;-6.362;2023-07-29T11:59:33;1.77;;;0.60;;
37787;SDS011;23627;53.302;-6.362;2023-07-29T12:02:00;3.85;;;0.93;;
37787;SDS011;23627;53.302;-6.362;2023-07-29T12:04:28;4.93;;;1.00;;
37787;SDS011;23627;53.302;-6.362;2023-07-29T12:06:55;3.90;;;0.70;;
37787;SDS011;23627;53.302;-6.362;2023-07-29T12:09:21;5.00;;;1.10;;
37787;SDS011;23627;53.302;-6.362;2023-07-29T12:11:47;3.13;;;0.80;;
37787;SDS011;23627;53.302;-6.362;2023-07-29T12:14:12;5.32;;;0.93;;
37787;SDS011;23627;53.302;-6.362;2023-07-29T12:16:47;4.55;;;0.80;;
37787;SDS011;23627;53.302;-6.362;2023-07-29T12:19:13;4.43;;;0.90;;
37787;SDS011;23627;53.302;-6.362;2023-07-29T12:21:43;3.83;;;0.90;;
37787;SDS011;23627;53.302;-6.362;2023-07-29T12:24:09;3.40;;;0.80;;
37787;SDS011;23627;53.302;-6.362;2023-07-29T12:26:39;2.70;;;1.00;;
37787;SDS011;23627;53.302;-6.362;2023-07-29T12:29:13;3.70;;;0.75;;
37787;SDS011;23627;53.302;-6.362;2023-07-29T12:31:39;3.25;;;1.30;;
37787;SDS011;23627;53.302;-6.362;2023-07-29T12:34:05;3.05;;;0.77;;
37787;SDS011;23627;53.302;-6.362;2023-07-29T12:36:44;3.60;;;0.90;;
37787;SDS011;23627;53.302;-6.362;2023-07-29T12:39:21;4.88;;;0.85;;
37787;SDS011;23627;53.302;-6.362;2023-07-29T12:41:49;3.38;;;0.90;;
37787;SDS011;23627;53.302;-6.362;2023-07-29T12:44:17;4.82;;;1.20;;
37787;SDS011;23627;53.302;-6.362;2023-07-29T12:46:43;4.38;;;0.98;;
37787;SDS011;23627;53.302;-6.362;2023-07-29T12:49:09;4.47;;;1.10;;
37787;SDS011;23627;53.302;-6.362;2023-07-29T12:51:35;3.67;;;0.82;;
37787;SDS011;23627;53.302;-6.362;2023-07-29T12:54:02;3.63;;;0.70;;
37787;SDS011;23627;53.302;-6.362;2023-07-29T12:56:29;3.83;;;0.77;;
37787;SDS011;23627;53.302;-6.362;2023-07-29T12:58:56;3.28;;;0.60;;
37787;SDS011;23627;53.302;-6.362;2023-07-29T13:01:25;2.75;;;0.93;;
37787;SDS011;23627;53.302;-6.362;2023-07-29T13:03:52;1.95;;;0.52;;
37787;SDS011;23627;53.302;-6.362;2023-07-29T13:06:18;3.72;;;0.88;;
37787;SDS011;23627;53.302;-6.362;2023-07-29T13:08:44;3.42;;;0.75;;
37787;SDS011;23627;53.302;-6.362;2023-07-29T13:11:10;3.00;;;1.00;;
37787;SDS011;23627;53.302;-6.362;2023-07-29T13:13:36;4.45;;;0.90;;
37787;SDS011;23627;53.302;-6.362;2023-07-29T13:16:02;4.47;;;1.10;;
37787;SDS011;23627;53.302;-6.362;2023-07-29T13:18:27;3.92;;;0.90;;
37787;SDS011;23627;53.302;-6.362;2023-07-29T13:20:54;3.78;;;1.08;;
37787;SDS011;23627;53.302;-6.362;2023-07-29T13:23:20;4.63;;;0.98;;
37787;SDS011;23627;53.302;-6.362;2023-07-29T13:25:46;2.83;;;1.10;;
37787;SDS011;23627;53.302;-6.362;2023-07-29T13:28:12;5.00;;;1.05;;
37787;SDS011;23627;53.302;-6.362;2023-07-29T13:30:38;5.47;;;1.27;;
37787;SDS011;23627;53.302;-6.362;2023-07-29T13:33:05;5.50;;;1.35;;
37787;SDS011;23627;53.302;-6.362;2023-07-29T13:35:31;2.85;;;0.70;;
37787;SDS011;23627;53.302;-6.362;2023-07-29T13:37:57;2.90;;;0.70;;
37787;SDS011;23627;53.302;-6.362;2023-07-29T13:40:22;3.22;;;0.60;;
37787;SDS011;23627;53.302;-6.362;2023-07-29T13:42:48;3.42;;;0.85;;
37787;SDS011;23627;53.302;-6.362;2023-07-29T13:45:14;2.58;;;0.60;;
37787;SDS011;23627;53.302;-6.362;2023-07-29T13:47:40;4.93;;;0.68;;
37787;SDS011;23627;53.302;-6.362;2023-07-29T13:50:05;4.18;;;0.55;;
37787;SDS011;23627;53.302;-6.362;2023-07-29T13:52:35;3.72;;;0.80;;
37787;SDS011;23627;53.302;-6.362;2023-07-29T13:55:02;2.95;;;0.52;;
37787;SDS011;23627;53.302;-6.362;2023-07-29T13:57:33;3.28;;;0.70;;
37787;SDS011;23627;53.302;-6.362;2023-07-29T13:59:59;2.90;;;0.60;;
37787;SDS011;23627;53.302;-6.362;2023-07-29T14:02:25;3.20;;;0.77;;
37787;SDS011;23627;53.302;-6.362;2023-07-29T14:04:55;3.72;;;0.70;;
37787;SDS011;23627;53.302;-6.362;2023-07-29T14:07:21;5.07;;;0.80;;
37787;SDS011;23627;53.302;-6.362;2023-07-29T14:09:47;3.88;;;0.95;;
37787;SDS011;23627;53.302;-6.362;2023-07-29T14:12:13;3.90;;;0.88;;
37787;SDS011;23627;53.302;-6.362;2023-07-29T14:14:40;3.95;;;0.80;;
37787;SDS011;23627;53.302;-6.362;2023-07-29T14:17:07;3.08;;;0.88;;
37787;SDS011;23627;53.302;-6.362;2023-07-29T14:19:36;5.60;;;0.95;;
37787;SDS011;23627;53.302;-6.362;2023-07-29T14:22:02;3.33;;;0.75;;
37787;SDS011;23627;53.302;-6.362;2023-07-29T14:24:28;4.07;;;1.00;;
37787;SDS011;23627;53.302;-6.362;2023-07-29T14:26:53;4.60;;;1.00;;
37787;SDS011;23627;53.302;-6.362;2023-07-29T14:29:19;4.82;;;0.95;;
37787;SDS011;23627;53.302;-6.362;2023-07-29T14:31:45;3.70;;;0.77;;
37787;SDS011;23627;53.302;-6.362;2023-07-29T14:34:10;3.70;;;0.90;;
37787;SDS011;23627;53.302;-6.362;2023-07-29T14:36:36;3.42;;;0.90;;
37787;SDS011;23627;53.302;-6.362;2023-07-29T14:39:02;4.25;;;1.02;;
37787;SDS011;23627;53.302;-6.362;2023-07-29T14:41:28;4.88;;;0.80;;
37787;SDS011;23627;53.302;-6.362;2023-07-29T14:43:54;4.15;;;1.13;;
37787;SDS011;23627;53.302;-6.362;2023-07-29T14:46:20;4.20;;;0.82;;
37787;SDS011;23627;53.302;-6.362;2023-07-29T14:48:46;6.63;;;1.02;;
37787;SDS011;23627;53.302;-6.362;2023-07-29T14:51:12;3.03;;;0.90;;
37787;SDS011;23627;53.302;-6.362;2023-07-29T14:53:38;5.90;;;1.27;;
37787;SDS011;23627;53.302;-6.362;2023-07-29T14:56:04;5.25;;;1.00;;